createdAt,value
2022-08-21T00:00:29.401Z,1.70
2022-08-21T00:03:06.389Z,1.85
2022-08-21T00:05:42.549Z,1.75
2022-08-21T00:08:13.043Z,1.70
2022-08-21T00:10:44.747Z,1.75
2022-08-21T00:13:18.681Z,2.20
2022-08-21T00:15:50.155Z,1.77
2022-08-21T00:18:21.255Z,1.90
2022-08-21T00:20:51.774Z,1.83
2022-08-21T00:23:22.381Z,1.85
2022-08-21T00:25:52.734Z,1.15
2022-08-21T00:28:23.064Z,1.50
2022-08-21T00:30:53.289Z,1.75
2022-08-21T00:33:24.435Z,1.83
2022-08-21T00:35:54.687Z,1.30
2022-08-21T00:38:24.899Z,1.70
2022-08-21T00:41:21.168Z,1.67
2022-08-21T00:43:52.527Z,1.45
2022-08-21T00:46:24.766Z,2.17
2022-08-21T00:48:59.024Z,1.75
2022-08-21T00:51:38.599Z,1.80
2022-08-21T00:54:18.175Z,1.48
2022-08-21T00:57:03.046Z,1.90
2022-08-21T00:59:38.090Z,1.90
2022-08-21T01:02:09.312Z,2.00
2022-08-21T01:04:39.843Z,2.30
2022-08-21T01:07:11.100Z,1.98
2022-08-21T01:09:42.353Z,2.15
2022-08-21T01:12:13.791Z,2.25
2022-08-21T01:14:46.268Z,2.35
2022-08-21T01:17:17.872Z,2.10
2022-08-21T01:19:48.128Z,1.88
2022-08-21T01:22:18.468Z,1.75
2022-08-21T01:24:48.695Z,2.90
2022-08-21T01:27:18.982Z,2.20
2022-08-21T01:30:09.010Z,2.47
2022-08-21T01:32:39.801Z,2.88
2022-08-21T01:35:13.965Z,2.22
2022-08-21T01:37:44.611Z,2.47
2022-08-21T01:40:17.915Z,1.83
2022-08-21T01:42:48.377Z,1.52
2022-08-21T01:45:18.658Z,2.00
2022-08-21T01:47:49.211Z,1.35
2022-08-21T01:50:21.499Z,2.05
2022-08-21T01:52:53.312Z,1.75
2022-08-21T01:55:23.904Z,2.10
2022-08-21T01:57:54.522Z,1.60
2022-08-21T02:00:24.903Z,1.90
2022-08-21T02:02:55.180Z,1.80
2022-08-21T02:05:25.547Z,2.08
2022-08-21T02:07:56.632Z,2.30
2022-08-21T02:10:30.824Z,2.08
2022-08-21T02:13:01.813Z,2.60
2022-08-21T02:15:32.609Z,2.40
2022-08-21T02:18:06.359Z,2.67
2022-08-21T02:20:41.831Z,2.30
2022-08-21T02:23:13.388Z,1.83
2022-08-21T02:25:43.949Z,2.72
2022-08-21T02:28:16.203Z,2.55
2022-08-21T02:30:49.802Z,2.33
2022-08-21T02:33:20.840Z,2.40
2022-08-21T02:35:51.657Z,2.65
2022-08-21T02:38:26.182Z,2.58
2022-08-21T02:40:57.482Z,2.45
2022-08-21T02:43:29.279Z,2.50
2022-08-21T02:45:59.919Z,2.40
2022-08-21T02:48:33.604Z,2.15
2022-08-21T02:51:06.374Z,2.78
2022-08-21T02:53:37.140Z,2.38
2022-08-21T02:56:10.511Z,2.88
2022-08-21T02:58:45.343Z,2.17
2022-08-21T03:01:16.730Z,2.30
2022-08-21T03:03:51.070Z,2.45
2022-08-21T03:06:25.718Z,2.53
2022-08-21T03:08:55.931Z,2.65
2022-08-21T03:11:27.624Z,2.90
2022-08-21T03:13:57.999Z,3.53
2022-08-21T03:16:31.984Z,2.67
2022-08-21T03:19:05.025Z,3.30
2022-08-21T03:21:35.210Z,3.05
2022-08-21T03:24:05.905Z,2.90
2022-08-21T03:26:37.145Z,2.75
2022-08-21T03:29:10.373Z,2.90
2022-08-21T03:31:40.806Z,3.10
2022-08-21T03:34:11.287Z,2.78
2022-08-21T03:36:41.739Z,3.05
2022-08-21T03:39:12.006Z,3.00
2022-08-21T03:41:42.714Z,3.05
2022-08-21T03:44:13.039Z,3.05
2022-08-21T03:46:43.308Z,3.25
2022-08-21T03:49:14.308Z,2.67
2022-08-21T03:51:44.573Z,2.83
2022-08-21T03:54:14.929Z,2.95
2022-08-21T03:56:45.281Z,3.20
2022-08-21T03:59:15.755Z,3.38
2022-08-21T04:02:00.229Z,3.42
2022-08-21T04:04:31.146Z,2.85
2022-08-21T04:07:01.312Z,2.97
2022-08-21T04:09:31.724Z,3.20
2022-08-21T04:12:02.109Z,3.03
2022-08-21T04:14:32.366Z,3.40
2022-08-21T04:17:02.601Z,3.13
2022-08-21T04:19:32.886Z,3.40
2022-08-21T04:22:03.161Z,3.42
2022-08-21T04:24:33.378Z,3.13
2022-08-21T04:27:03.930Z,3.35
2022-08-21T04:29:37.159Z,3.83
2022-08-21T04:32:10.128Z,3.15
2022-08-21T04:34:40.291Z,3.72
2022-08-21T04:37:10.522Z,3.25
2022-08-21T04:39:40.743Z,3.50
2022-08-21T04:42:10.964Z,3.55
2022-08-21T04:44:42.541Z,3.75
2022-08-21T04:47:12.775Z,3.30
2022-08-21T04:49:42.995Z,3.50
2022-08-21T04:52:17.503Z,3.90
2022-08-21T04:54:53.118Z,3.47
2022-08-21T04:57:39.696Z,3.83
2022-08-21T05:00:20.083Z,3.40
2022-08-21T05:02:51.184Z,3.15
2022-08-21T05:05:21.928Z,3.45
2022-08-21T05:07:54.222Z,3.53
2022-08-21T05:10:24.577Z,3.75
2022-08-21T05:12:55.933Z,3.70
2022-08-21T05:15:26.332Z,4.10
2022-08-21T05:18:00.725Z,3.88
2022-08-21T05:20:31.711Z,3.45
2022-08-21T05:23:03.056Z,4.50
2022-08-21T05:25:33.273Z,4.22
2022-08-21T05:28:05.781Z,4.18
2022-08-21T05:30:37.423Z,4.30
2022-08-21T05:33:08.440Z,4.00
2022-08-21T05:35:39.826Z,4.03
2022-08-21T05:38:18.090Z,4.45
2022-08-21T05:40:49.076Z,4.18
2022-08-21T05:43:19.355Z,4.07
2022-08-21T05:45:49.494Z,4.50
2022-08-21T05:48:24.026Z,4.25
2022-08-21T05:50:54.294Z,4.00
2022-08-21T05:53:25.892Z,4.20
2022-08-21T05:55:56.204Z,3.63
2022-08-21T05:58:26.804Z,3.92
2022-08-21T06:00:57.120Z,4.05
2022-08-21T06:03:32.044Z,4.53
2022-08-21T06:06:02.969Z,3.80
2022-08-21T06:08:33.543Z,4.63
2022-08-21T06:11:05.185Z,4.00
2022-08-21T06:13:36.743Z,4.25
2022-08-21T06:16:08.798Z,4.65
2022-08-21T06:18:40.094Z,4.22
2022-08-21T06:21:10.543Z,4.95
2022-08-21T06:23:41.573Z,4.43
2022-08-21T06:26:14.371Z,3.97
2022-08-21T06:28:44.876Z,4.13
2022-08-21T06:31:26.311Z,4.38
2022-08-21T06:33:57.180Z,3.90
2022-08-21T06:36:27.548Z,3.92
2022-08-21T06:38:58.080Z,3.90
2022-08-21T06:41:28.437Z,4.00
2022-08-21T06:43:59.485Z,4.45
2022-08-21T06:46:31.233Z,4.45
2022-08-21T06:49:01.541Z,3.92
2022-08-21T06:51:31.790Z,4.13
2022-08-21T06:54:01.976Z,4.68
2022-08-21T06:56:34.453Z,3.60
2022-08-21T06:59:06.169Z,4.35
2022-08-21T07:01:37.720Z,3.53
2022-08-21T07:04:08.564Z,4.18
2022-08-21T07:06:39.306Z,3.42
2022-08-21T07:09:11.018Z,3.63
2022-08-21T07:11:47.283Z,4.20
2022-08-21T07:14:20.342Z,3.47
2022-08-21T07:16:52.597Z,4.05
2022-08-21T07:19:22.969Z,3.08
2022-08-21T07:21:58.968Z,3.53
2022-08-21T07:24:29.418Z,3.42
2022-08-21T07:26:59.713Z,4.03
2022-08-21T07:29:32.906Z,3.70
2022-08-21T07:32:03.514Z,3.90
2022-08-21T07:34:33.789Z,3.05
2022-08-21T07:37:06.057Z,4.10
2022-08-21T07:39:40.212Z,3.70
2022-08-21T07:42:11.997Z,3.80
2022-08-21T07:44:42.336Z,3.90
2022-08-21T07:47:12.901Z,4.20
2022-08-21T07:49:43.197Z,5.10
2022-08-21T07:52:13.591Z,4.22
2022-08-21T07:54:43.825Z,4.30
2022-08-21T07:57:14.402Z,4.40
2022-08-21T07:59:48.882Z,4.43
2022-08-21T08:02:24.917Z,4.28
2022-08-21T08:04:55.320Z,3.80
2022-08-21T08:07:25.653Z,4.20
2022-08-21T08:09:55.991Z,5.07
2022-08-21T08:12:30.701Z,4.57
2022-08-21T08:15:02.049Z,5.28
2022-08-21T08:17:33.432Z,5.20
2022-08-21T08:20:04.580Z,5.85
2022-08-21T08:22:40.789Z,4.95
2022-08-21T08:25:13.359Z,5.18
2022-08-21T08:27:43.637Z,5.47
2022-08-21T08:30:16.028Z,5.32
2022-08-21T08:32:48.102Z,5.00
2022-08-21T08:35:18.780Z,4.93
2022-08-21T08:37:54.711Z,5.00
2022-08-21T08:41:07.536Z,4.65
2022-08-21T08:43:37.931Z,5.72
2022-08-21T08:46:17.393Z,5.63
2022-08-21T08:49:20.040Z,5.40
2022-08-21T08:52:03.925Z,5.88
2022-08-21T08:54:43.973Z,6.45
2022-08-21T08:57:20.602Z,5.43
2022-08-21T08:59:56.344Z,4.72
2022-08-21T09:02:28.770Z,5.07
2022-08-21T09:05:01.388Z,5.22
2022-08-21T09:07:57.682Z,4.93
2022-08-21T09:10:37.599Z,3.95
2022-08-21T09:13:40.576Z,4.53
2022-08-21T09:16:26.374Z,3.97
2022-08-21T09:19:25.003Z,3.70
2022-08-21T09:22:04.487Z,3.17
2022-08-21T09:24:59.511Z,3.95
2022-08-21T09:27:32.601Z,2.63
2022-08-21T09:30:03.239Z,2.97
2022-08-21T09:32:37.983Z,2.53
2022-08-21T09:35:15.714Z,2.30
2022-08-21T09:38:08.612Z,2.20
2022-08-21T09:40:41.449Z,1.88
2022-08-21T09:43:14.799Z,2.53
2022-08-21T09:45:46.395Z,2.45
2022-08-21T09:48:26.219Z,2.42
2022-08-21T09:51:08.411Z,2.28
2022-08-21T09:53:44.190Z,2.60
2022-08-21T09:59:25.217Z,2.25
2022-08-21T10:01:55.747Z,1.92
2022-08-21T10:04:31.488Z,2.30
2022-08-21T10:09:40.549Z,2.05
2022-08-21T10:12:31.331Z,2.20
2022-08-21T10:15:10.589Z,2.67
2022-08-21T10:17:56.361Z,2.75
2022-08-21T10:20:45.836Z,2.55
2022-08-21T10:23:53.775Z,2.60
2022-08-21T10:26:39.504Z,2.65
2022-08-21T10:29:39.797Z,2.65
2022-08-21T10:32:30.609Z,2.40
2022-08-21T10:35:22.567Z,2.60
2022-08-21T10:38:48.792Z,2.33
2022-08-21T10:41:39.525Z,2.72
2022-08-21T10:44:40.671Z,2.00
2022-08-21T10:47:24.039Z,2.55
2022-08-21T10:50:05.694Z,2.33
2022-08-21T10:52:56.518Z,2.20
2022-08-21T10:55:40.591Z,2.50
2022-08-21T10:58:35.428Z,2.50
2022-08-21T11:01:17.082Z,2.15
2022-08-21T11:03:53.145Z,2.60
2022-08-21T11:06:29.027Z,2.30
2022-08-21T11:09:14.950Z,2.35
2022-08-21T11:11:59.351Z,3.22
2022-08-21T11:15:08.461Z,3.08
2022-08-21T11:18:05.426Z,3.08
2022-08-21T11:20:50.230Z,2.58
2022-08-21T11:23:32.249Z,2.13
2022-08-21T11:26:09.964Z,2.75
2022-08-21T11:28:59.390Z,2.22
2022-08-21T11:32:01.373Z,2.70
2022-08-21T11:34:43.371Z,2.65
2022-08-21T11:37:47.935Z,2.40
2022-08-21T11:40:29.966Z,2.33
2022-08-21T11:43:09.342Z,2.50
2022-08-21T11:45:46.057Z,2.40
2022-08-21T11:48:28.436Z,1.92
2022-08-21T11:51:03.277Z,1.90
2022-08-21T11:53:48.876Z,2.50
2022-08-21T11:56:28.502Z,2.17
2022-08-21T11:59:06.263Z,2.72
2022-08-21T12:01:41.900Z,2.22
2022-08-21T12:07:31.695Z,2.10
2022-08-21T12:10:05.410Z,2.38
2022-08-21T12:12:38.597Z,2.22
2022-08-21T12:15:21.080Z,2.40
2022-08-21T12:18:03.408Z,2.53
2022-08-21T12:20:33.573Z,3.40
2022-08-21T12:23:20.808Z,3.78
2022-08-21T12:26:14.474Z,3.90
2022-08-21T12:28:44.913Z,3.45
2022-08-21T12:31:25.275Z,3.30
2022-08-21T12:34:00.065Z,3.17
2022-08-21T12:36:43.077Z,2.17
2022-08-21T12:39:20.713Z,2.10
2022-08-21T12:42:12.544Z,1.90
2022-08-21T12:44:56.499Z,1.80
2022-08-21T12:47:45.680Z,1.98
2022-08-21T12:50:27.543Z,2.15
2022-08-21T12:53:20.425Z,1.77
2022-08-21T12:55:51.621Z,2.10
2022-08-21T12:58:24.205Z,1.60
2022-08-21T13:01:03.899Z,2.10
2022-08-21T13:03:38.151Z,2.20
2022-08-21T13:06:14.173Z,2.28
2022-08-21T13:08:47.376Z,2.00
2022-08-21T13:11:25.204Z,2.65
2022-08-21T13:14:05.337Z,2.30
2022-08-21T13:16:36.279Z,2.42
2022-08-21T13:19:09.749Z,2.60
2022-08-21T13:21:43.252Z,2.50
2022-08-21T13:24:45.663Z,2.20
2022-08-21T13:27:24.888Z,2.00
2022-08-21T13:30:12.624Z,2.00
2022-08-21T13:32:49.798Z,2.25
2022-08-21T13:35:27.377Z,2.22
2022-08-21T13:37:58.407Z,2.45
2022-08-21T13:40:54.018Z,2.70
2022-08-21T13:43:32.187Z,2.85
2022-08-21T13:46:09.504Z,3.05
2022-08-21T13:48:40.045Z,2.95
2022-08-21T13:51:13.109Z,2.63
2022-08-21T13:53:46.037Z,2.33
2022-08-21T13:56:31.449Z,2.65
2022-08-21T13:59:03.127Z,2.85
2022-08-21T14:01:41.306Z,2.17
2022-08-21T14:04:53.060Z,1.85
2022-08-21T14:07:33.582Z,2.40
2022-08-21T14:10:08.389Z,1.70
2022-08-21T14:12:55.954Z,2.53
2022-08-21T14:15:30.133Z,2.03
2022-08-21T14:18:19.775Z,1.90
2022-08-21T14:20:50.410Z,2.17
2022-08-21T14:23:28.498Z,1.88
2022-08-21T14:26:05.334Z,2.35
2022-08-21T14:28:41.166Z,2.40
2022-08-21T14:33:52.259Z,1.98
2022-08-21T14:36:22.450Z,1.98
2022-08-21T14:38:53.312Z,1.88
2022-08-21T14:41:28.675Z,1.90
2022-08-21T14:44:08.149Z,2.10
2022-08-21T14:46:51.208Z,2.10
2022-08-21T14:49:33.225Z,1.80
2022-08-21T14:52:05.086Z,1.73
2022-08-21T14:54:36.627Z,1.92
2022-08-21T14:57:10.656Z,1.80
2022-08-21T14:59:42.698Z,2.03
2022-08-21T15:02:13.230Z,2.28
2022-08-21T15:04:44.007Z,1.70
2022-08-21T15:07:15.063Z,2.35
2022-08-21T15:09:45.786Z,2.38
2022-08-21T15:12:16.948Z,2.20
2022-08-21T15:14:47.494Z,2.33
2022-08-21T15:17:18.446Z,2.42
2022-08-21T15:19:49.140Z,1.88
2022-08-21T15:22:27.776Z,2.08
2022-08-21T15:24:58.701Z,2.85
2022-08-21T15:27:30.368Z,2.80
2022-08-21T15:30:01.506Z,3.28
2022-08-21T15:32:32.298Z,2.75
2022-08-21T15:35:04.118Z,2.90
2022-08-21T15:37:34.998Z,2.95
2022-08-21T15:40:08.206Z,2.22
2022-08-21T15:42:41.899Z,2.70
2022-08-21T15:45:14.268Z,2.55
2022-08-21T15:47:46.870Z,2.83
2022-08-21T15:50:18.696Z,2.30
2022-08-21T15:52:50.015Z,1.80
2022-08-21T15:55:21.778Z,2.00
2022-08-21T15:57:57.079Z,2.40
2022-08-21T16:00:29.855Z,1.95
2022-08-21T16:03:01.499Z,1.95
2022-08-21T16:05:33.280Z,2.53
2022-08-21T16:08:04.146Z,1.52
2022-08-21T16:10:36.808Z,1.67
2022-08-21T16:13:14.207Z,2.10
2022-08-21T16:15:45.123Z,1.92
2022-08-21T16:18:16.030Z,2.00
2022-08-21T16:20:47.624Z,1.40
2022-08-21T16:23:18.172Z,1.98
2022-08-21T16:25:51.232Z,1.33
2022-08-21T16:28:24.977Z,2.50
2022-08-21T16:30:55.682Z,2.70
2022-08-21T16:33:40.535Z,2.13
2022-08-21T16:36:12.864Z,2.55
2022-08-21T16:38:51.369Z,3.17
2022-08-21T16:41:23.810Z,3.17
2022-08-21T16:43:55.493Z,2.22
2022-08-21T16:46:26.581Z,1.88
2022-08-21T16:48:56.868Z,1.73
2022-08-21T16:51:27.261Z,2.10
2022-08-21T16:54:01.322Z,1.88
2022-08-21T16:56:31.661Z,1.45
2022-08-21T16:59:02.152Z,1.55
2022-08-21T17:01:34.826Z,1.60
2022-08-21T17:04:06.294Z,1.40
2022-08-21T17:06:36.916Z,1.92
2022-08-21T17:09:07.852Z,1.52
2022-08-21T17:11:42.924Z,1.58
2022-08-21T17:14:24.119Z,1.38
2022-08-21T17:16:57.259Z,1.20
2022-08-21T17:19:27.963Z,1.38
2022-08-21T17:21:59.107Z,1.35
2022-08-21T17:24:29.689Z,1.13
2022-08-21T17:27:01.242Z,1.00
2022-08-21T17:29:37.070Z,1.30
2022-08-21T17:32:12.844Z,1.17
2022-08-21T17:34:48.589Z,1.20
2022-08-21T17:37:20.444Z,0.80
2022-08-21T17:39:50.898Z,1.48
2022-08-21T17:42:23.239Z,0.90
2022-08-21T17:44:56.661Z,1.30
2022-08-21T17:47:27.223Z,1.20
2022-08-21T17:50:01.718Z,0.90
2022-08-21T17:52:33.674Z,1.65
2022-08-21T17:55:06.577Z,1.33
2022-08-21T17:57:41.693Z,1.13
2022-08-21T18:00:15.671Z,1.23
2022-08-21T18:02:48.498Z,1.13
2022-08-21T18:05:19.116Z,1.60
2022-08-21T18:07:49.304Z,1.10
2022-08-21T18:10:19.622Z,0.93
2022-08-21T18:12:50.783Z,1.58
2022-08-21T18:15:21.476Z,1.60
2022-08-21T18:17:52.365Z,1.20
2022-08-21T18:20:24.436Z,1.77
2022-08-21T18:22:54.815Z,1.50
2022-08-21T18:25:25.115Z,1.90
2022-08-21T18:27:56.122Z,2.28
2022-08-21T18:30:26.499Z,2.25
2022-08-21T18:32:57.372Z,2.30
2022-08-21T18:35:28.332Z,2.00
2022-08-21T18:38:03.249Z,1.90
2022-08-21T18:40:34.587Z,2.38
2022-08-21T18:43:10.262Z,2.28
2022-08-21T18:45:46.114Z,2.63
2022-08-21T18:48:18.011Z,2.28
2022-08-21T18:50:51.518Z,1.80
2022-08-21T18:53:27.559Z,2.40
2022-08-21T18:56:05.210Z,1.88
2022-08-21T18:58:35.910Z,2.03
2022-08-21T19:01:06.222Z,2.10
2022-08-21T19:03:36.900Z,1.48
2022-08-21T19:06:09.753Z,1.10
2022-08-21T19:08:42.344Z,1.60
2022-08-21T19:11:13.051Z,1.55
2022-08-21T19:13:44.655Z,1.48
2022-08-21T19:16:16.773Z,1.20
2022-08-21T19:18:47.054Z,1.50
2022-08-21T19:21:17.399Z,1.90
2022-08-21T19:23:52.537Z,1.40
2022-08-21T19:26:26.413Z,1.38
2022-08-21T19:28:59.962Z,1.27
2022-08-21T19:31:34.452Z,1.48
2022-08-21T19:34:11.887Z,1.23
2022-08-21T19:36:43.195Z,1.00
2022-08-21T19:39:14.294Z,1.60
2022-08-21T19:41:53.360Z,1.35
2022-08-21T19:44:28.612Z,1.65
2022-08-21T19:47:00.369Z,1.67
2022-08-21T19:49:35.528Z,2.03
2022-08-21T19:52:12.881Z,1.42
2022-08-21T19:54:44.859Z,1.40
2022-08-21T19:57:15.615Z,1.20
2022-08-21T19:59:46.741Z,1.40
2022-08-21T20:02:19.862Z,1.25
2022-08-21T20:04:53.586Z,1.45
2022-08-21T20:07:42.092Z,1.15
2022-08-21T20:10:14.106Z,1.13
2022-08-21T20:12:49.395Z,1.40
2022-08-21T20:15:22.283Z,1.42
2022-08-21T20:17:53.754Z,1.38
2022-08-21T20:20:24.602Z,1.27
2022-08-21T20:23:10.954Z,1.50
2022-08-21T20:25:48.422Z,1.60
2022-08-21T20:28:20.618Z,1.45
2022-08-21T20:30:52.167Z,1.55
2022-08-21T20:33:22.745Z,1.15
2022-08-21T20:35:53.226Z,0.70
2022-08-21T20:38:25.723Z,1.05
2022-08-21T20:41:00.202Z,1.10
2022-08-21T20:43:35.348Z,1.13
2022-08-21T20:46:08.782Z,1.27
2022-08-21T20:48:49.632Z,1.08
2022-08-21T20:51:45.308Z,1.00
2022-08-21T20:54:49.083Z,1.02
2022-08-21T20:57:23.073Z,1.05
2022-08-21T21:00:14.447Z,0.93
2022-08-21T21:02:51.103Z,0.95
2022-08-21T21:08:14.710Z,1.20
2022-08-21T21:11:03.403Z,0.60
2022-08-21T21:13:40.417Z,0.85
2022-08-21T21:17:02.565Z,0.95
2022-08-21T21:19:57.966Z,0.70
2022-08-21T21:22:45.824Z,0.80
2022-08-21T21:25:40.069Z,0.60
2022-08-21T21:28:27.524Z,1.00
2022-08-21T21:30:59.364Z,0.77
2022-08-21T21:33:34.329Z,1.02
2022-08-21T21:36:22.783Z,0.80
2022-08-21T21:39:00.746Z,0.80
2022-08-21T21:41:44.932Z,0.60
2022-08-21T21:44:22.081Z,0.65
2022-08-21T21:47:01.602Z,0.55
2022-08-21T21:49:57.034Z,0.95
2022-08-21T21:52:36.430Z,1.13
2022-08-21T21:55:36.389Z,0.85
2022-08-21T21:58:35.442Z,0.70
2022-08-21T22:01:38.216Z,0.80
2022-08-21T22:04:21.365Z,0.90
2022-08-21T22:07:06.842Z,0.60
2022-08-21T22:09:46.721Z,0.65
2022-08-21T22:12:50.342Z,1.17
2022-08-21T22:15:26.387Z,0.80
2022-08-21T22:18:10.291Z,0.63
2022-08-21T22:21:09.398Z,0.70
2022-08-21T22:23:48.236Z,0.52
2022-08-21T22:26:25.875Z,0.90
2022-08-21T22:28:57.582Z,0.63
2022-08-21T22:31:34.369Z,0.70
2022-08-21T22:34:18.486Z,1.20
2022-08-21T22:36:59.993Z,0.50
2022-08-21T22:39:39.275Z,0.60
2022-08-21T22:42:14.290Z,0.80
2022-08-21T22:45:12.107Z,0.80
2022-08-21T22:47:48.626Z,0.90
2022-08-21T22:50:30.661Z,0.80
2022-08-21T22:53:06.116Z,0.40
2022-08-21T22:58:38.805Z,0.70
2022-08-21T23:01:36.659Z,1.00
2022-08-21T23:04:20.306Z,1.08
2022-08-21T23:06:58.349Z,0.60
2022-08-21T23:09:45.359Z,0.77
2022-08-21T23:12:35.209Z,0.75
2022-08-21T23:15:10.930Z,0.93
2022-08-21T23:18:16.499Z,0.75
2022-08-21T23:21:09.049Z,0.80
2022-08-21T23:24:06.818Z,0.70
2022-08-21T23:27:00.536Z,0.75
2022-08-21T23:30:07.467Z,0.80
2022-08-21T23:32:56.410Z,0.90
2022-08-21T23:35:51.120Z,0.50
2022-08-21T23:38:42.797Z,0.50
2022-08-21T23:41:34.315Z,0.63
2022-08-21T23:44:44.809Z,0.70
2022-08-21T23:47:33.331Z,0.70
2022-08-21T23:50:27.157Z,0.75
2022-08-21T23:53:16.905Z,0.60
2022-08-21T23:55:56.165Z,0.88
2022-08-21T23:58:38.184Z,0.80
